sensor_id;sensor_type;location;lat;lon;timestamp;pressure;altitude;pressure_sealevel;temperature;humidity
50774;BME280;36745;48.544;8.918;2022-09-12T00:02:11;97513.00;;;11.86;90.60
50774;BME280;36745;48.544;8.918;2022-09-12T00:05:12;97512.00;;;11.93;90.93
50774;BME280;36745;48.544;8.918;2022-09-12T00:08:13;97516.84;;;12.01;89.77
50774;BME280;36745;48.544;8.918;2022-09-12T00:11:14;97519.41;;;11.83;89.94
50774;BME280;36745;48.544;8.918;2022-09-12T00:14:18;97523.69;;;11.71;90.38
50774;BME280;36745;48.544;8.918;2022-09-12T00:17:19;97515.63;;;11.77;90.71
50774;BME280;36745;48.544;8.918;2022-09-12T00:20:20;97512.44;;;11.78;90.25
50774;BME280;36745;48.544;8.918;2022-09-12T00:23:21;97510.53;;;11.63;90.73
50774;BME280;36745;48.544;8.918;2022-09-12T00:26:21;97505.91;;;11.60;91.10
50774;BME280;36745;48.544;8.918;2022-09-12T00:29:22;97507.34;;;11.52;90.51
50774;BME280;36745;48.544;8.918;2022-09-12T00:32:23;97508.44;;;11.42;91.08
50774;BME280;36745;48.544;8.918;2022-09-12T00:35:24;97508.25;;;11.49;90.68
50774;BME280;36745;48.544;8.918;2022-09-12T00:38:25;97501.06;;;11.39;91.37
50774;BME280;36745;48.544;8.918;2022-09-12T00:41:31;97494.66;;;11.42;90.98
50774;BME280;36745;48.544;8.918;2022-09-12T00:47:35;97496.41;;;11.35;90.69
50774;BME280;36745;48.544;8.918;2022-09-12T00:50:37;97489.88;;;11.29;91.21
50774;BME280;36745;48.544;8.918;2022-09-12T00:53:40;97493.84;;;11.28;91.37
50774;BME280;36745;48.544;8.918;2022-09-12T00:56:43;97494.19;;;11.30;91.18
50774;BME280;36745;48.544;8.918;2022-09-12T00:59:52;97489.47;;;11.31;91.09
50774;BME280;36745;48.544;8.918;2022-09-12T01:03:00;97488.81;;;11.27;91.08
50774;BME280;36745;48.544;8.918;2022-09-12T01:06:10;97482.72;;;11.19;90.92
50774;BME280;36745;48.544;8.918;2022-09-12T01:09:18;97485.34;;;11.10;91.07
50774;BME280;36745;48.544;8.918;2022-09-12T01:12:23;97479.50;;;11.08;91.54
50774;BME280;36745;48.544;8.918;2022-09-12T01:15:24;97469.66;;;11.07;91.80
50774;BME280;36745;48.544;8.918;2022-09-12T01:25:17;97471.00;;;11.15;91.98
50774;BME280;36745;48.544;8.918;2022-09-12T01:32:02;97461.16;;;11.02;91.72
50774;BME280;36745;48.544;8.918;2022-09-12T01:35:22;97463.59;;;11.00;92.02
50774;BME280;36745;48.544;8.918;2022-09-12T01:41:56;97449.38;;;11.01;91.44
50774;BME280;36745;48.544;8.918;2022-09-12T01:45:08;97456.97;;;10.97;91.96
50774;BME280;36745;48.544;8.918;2022-09-12T01:48:20;97457.97;;;11.03;91.32
50774;BME280;36745;48.544;8.918;2022-09-12T01:51:27;97444.16;;;10.90;91.42
50774;BME280;36745;48.544;8.918;2022-09-12T01:54:42;97449.91;;;10.83;91.27
50774;BME280;36745;48.544;8.918;2022-09-12T01:57:50;97453.53;;;10.80;91.63
50774;BME280;36745;48.544;8.918;2022-09-12T02:01:25;97444.47;;;10.80;91.62
50774;BME280;36745;48.544;8.918;2022-09-12T02:07:53;97431.44;;;10.68;91.76
50774;BME280;36745;48.544;8.918;2022-09-12T02:10:59;97430.91;;;10.73;91.61
50774;BME280;36745;48.544;8.918;2022-09-12T02:14:06;97431.09;;;10.66;91.48
50774;BME280;36745;48.544;8.918;2022-09-12T02:17:12;97429.31;;;10.59;91.53
50774;BME280;36745;48.544;8.918;2022-09-12T02:20:22;97428.63;;;10.42;91.46
50774;BME280;36745;48.544;8.918;2022-09-12T02:23:28;97428.38;;;10.37;91.89
50774;BME280;36745;48.544;8.918;2022-09-12T02:26:40;97422.56;;;10.47;91.97
50774;BME280;36745;48.544;8.918;2022-09-12T02:29:44;97420.16;;;10.49;91.78
50774;BME280;36745;48.544;8.918;2022-09-12T02:33:00;97424.41;;;10.38;91.67
50774;BME280;36745;48.544;8.918;2022-09-12T02:36:16;97418.00;;;10.28;92.05
50774;BME280;36745;48.544;8.918;2022-09-12T02:39:26;97418.53;;;10.23;91.93
50774;BME280;36745;48.544;8.918;2022-09-12T02:42:27;97414.03;;;10.29;91.97
50774;BME280;36745;48.544;8.918;2022-09-12T02:45:28;97415.91;;;10.32;91.67
50774;BME280;36745;48.544;8.918;2022-09-12T02:48:33;97415.44;;;10.21;91.82
50774;BME280;36745;48.544;8.918;2022-09-12T02:51:35;97419.72;;;10.22;91.97
50774;BME280;36745;48.544;8.918;2022-09-12T02:54:37;97422.50;;;10.22;91.60
50774;BME280;36745;48.544;8.918;2022-09-12T02:57:38;97417.09;;;10.19;91.35
50774;BME280;36745;48.544;8.918;2022-09-12T03:00:47;97414.66;;;10.04;91.93
50774;BME280;36745;48.544;8.918;2022-09-12T03:04:09;97411.84;;;10.08;92.06
50774;BME280;36745;48.544;8.918;2022-09-12T03:07:43;97407.88;;;10.09;91.67
50774;BME280;36745;48.544;8.918;2022-09-12T03:24:15;97412.03;;;10.01;91.79
50774;BME280;36745;48.544;8.918;2022-09-12T03:27:42;97416.50;;;9.95;91.59
50774;BME280;36745;48.544;8.918;2022-09-12T03:30:46;97421.00;;;9.89;91.42
50774;BME280;36745;48.544;8.918;2022-09-12T03:33:47;97415.75;;;9.78;91.68
50774;BME280;36745;48.544;8.918;2022-09-12T03:36:49;97427.53;;;9.79;92.36
50774;BME280;36745;48.544;8.918;2022-09-12T03:39:49;97419.63;;;9.81;91.99
50774;BME280;36745;48.544;8.918;2022-09-12T03:42:50;97412.22;;;9.78;92.08
50774;BME280;36745;48.544;8.918;2022-09-12T03:45:51;97421.38;;;9.75;92.45
50774;BME280;36745;48.544;8.918;2022-09-12T03:48:53;97409.47;;;9.78;91.78
50774;BME280;36745;48.544;8.918;2022-09-12T03:51:53;97408.81;;;9.74;91.76
50774;BME280;36745;48.544;8.918;2022-09-12T03:54:54;97414.97;;;9.78;91.83
50774;BME280;36745;48.544;8.918;2022-09-12T03:57:56;97413.53;;;9.73;91.66
50774;BME280;36745;48.544;8.918;2022-09-12T04:00:56;97405.72;;;9.72;91.61
50774;BME280;36745;48.544;8.918;2022-09-12T04:03:57;97410.72;;;9.60;91.62
50774;BME280;36745;48.544;8.918;2022-09-12T04:06:58;97406.84;;;9.58;92.13
50774;BME280;36745;48.544;8.918;2022-09-12T04:09:59;97407.09;;;9.63;92.21
50774;BME280;36745;48.544;8.918;2022-09-12T04:13:00;97394.22;;;9.60;92.19
50774;BME280;36745;48.544;8.918;2022-09-12T04:16:02;97400.97;;;9.56;92.44
50774;BME280;36745;48.544;8.918;2022-09-12T04:19:04;97416.41;;;9.53;93.39
50774;BME280;36745;48.544;8.918;2022-09-12T04:22:05;97416.91;;;9.64;93.23
50774;BME280;36745;48.544;8.918;2022-09-12T04:25:06;97417.75;;;9.61;92.99
50774;BME280;36745;48.544;8.918;2022-09-12T04:28:07;97421.53;;;9.67;93.30
50774;BME280;36745;48.544;8.918;2022-09-12T04:31:16;97417.47;;;9.72;92.49
50774;BME280;36745;48.544;8.918;2022-09-12T04:34:18;97411.56;;;9.57;92.14
50774;BME280;36745;48.544;8.918;2022-09-12T04:37:19;97409.34;;;9.52;92.45
50774;BME280;36745;48.544;8.918;2022-09-12T04:40:20;97405.38;;;9.53;92.98
50774;BME280;36745;48.544;8.918;2022-09-12T04:43:24;97414.16;;;9.48;93.18
50774;BME280;36745;48.544;8.918;2022-09-12T04:46:25;97417.75;;;9.61;92.81
50774;BME280;36745;48.544;8.918;2022-09-12T04:49:26;97420.97;;;9.60;92.51
50774;BME280;36745;48.544;8.918;2022-09-12T04:52:27;97408.28;;;9.62;92.59
50774;BME280;36745;48.544;8.918;2022-09-12T04:55:29;97411.66;;;9.54;92.56
50774;BME280;36745;48.544;8.918;2022-09-12T04:58:33;97407.78;;;9.51;93.08
50774;BME280;36745;48.544;8.918;2022-09-12T05:01:35;97408.97;;;9.50;93.61
50774;BME280;36745;48.544;8.918;2022-09-12T05:04:39;97409.69;;;9.54;93.69
50774;BME280;36745;48.544;8.918;2022-09-12T05:07:43;97413.81;;;9.62;94.32
50774;BME280;36745;48.544;8.918;2022-09-12T05:10:44;97416.03;;;9.67;94.35
50774;BME280;36745;48.544;8.918;2022-09-12T05:13:45;97419.81;;;9.74;94.35
50774;BME280;36745;48.544;8.918;2022-09-12T05:16:48;97421.88;;;9.86;94.22
50774;BME280;36745;48.544;8.918;2022-09-12T05:19:51;97417.88;;;10.03;94.25
50774;BME280;36745;48.544;8.918;2022-09-12T05:22:55;97422.75;;;10.11;94.38
50774;BME280;36745;48.544;8.918;2022-09-12T05:25:57;97423.38;;;10.19;94.67
50774;BME280;36745;48.544;8.918;2022-09-12T05:29:04;97421.63;;;10.25;94.77
50774;BME280;36745;48.544;8.918;2022-09-12T05:32:06;97426.38;;;10.25;94.54
50774;BME280;36745;48.544;8.918;2022-09-12T05:35:07;97428.88;;;10.19;95.17
50774;BME280;36745;48.544;8.918;2022-09-12T05:38:08;97434.41;;;10.19;95.73
50774;BME280;36745;48.544;8.918;2022-09-12T05:41:21;97427.81;;;10.29;95.81
50774;BME280;36745;48.544;8.918;2022-09-12T05:44:25;97436.41;;;10.31;95.90
50774;BME280;36745;48.544;8.918;2022-09-12T05:47:26;97423.16;;;10.26;95.50
50774;BME280;36745;48.544;8.918;2022-09-12T05:50:27;97431.59;;;10.35;95.86
50774;BME280;36745;48.544;8.918;2022-09-12T05:53:30;97436.03;;;10.45;96.04
50774;BME280;36745;48.544;8.918;2022-09-12T05:56:38;97430.63;;;10.55;95.58
50774;BME280;36745;48.544;8.918;2022-09-12T05:59:42;97426.34;;;10.53;95.63
50774;BME280;36745;48.544;8.918;2022-09-12T06:02:43;97436.88;;;10.42;95.36
50774;BME280;36745;48.544;8.918;2022-09-12T06:05:44;97443.09;;;10.46;95.90
50774;BME280;36745;48.544;8.918;2022-09-12T06:08:47;97436.69;;;10.49;95.57
50774;BME280;36745;48.544;8.918;2022-09-12T06:11:49;97441.56;;;10.58;95.74
50774;BME280;36745;48.544;8.918;2022-09-12T06:14:50;97439.28;;;10.69;96.04
50774;BME280;36745;48.544;8.918;2022-09-12T06:17:58;97436.53;;;10.82;95.53
50774;BME280;36745;48.544;8.918;2022-09-12T06:21:13;97443.19;;;10.97;94.91
50774;BME280;36745;48.544;8.918;2022-09-12T06:24:18;97443.44;;;11.15;95.79
50774;BME280;36745;48.544;8.918;2022-09-12T06:27:20;97435.47;;;11.43;95.72
50774;BME280;36745;48.544;8.918;2022-09-12T06:30:23;97433.47;;;11.81;95.68
50774;BME280;36745;48.544;8.918;2022-09-12T06:33:24;97436.97;;;12.16;95.26
50774;BME280;36745;48.544;8.918;2022-09-12T06:36:28;97434.34;;;12.12;93.46
50774;BME280;36745;48.544;8.918;2022-09-12T06:39:29;97435.16;;;12.00;93.27
50774;BME280;36745;48.544;8.918;2022-09-12T06:42:31;97428.84;;;12.12;93.68
50774;BME280;36745;48.544;8.918;2022-09-12T06:45:35;97421.19;;;12.16;93.37
50774;BME280;36745;48.544;8.918;2022-09-12T06:48:39;97434.03;;;12.10;92.85
50774;BME280;36745;48.544;8.918;2022-09-12T06:51:46;97430.88;;;12.21;93.00
50774;BME280;36745;48.544;8.918;2022-09-12T06:54:50;97433.66;;;12.21;93.09
50774;BME280;36745;48.544;8.918;2022-09-12T06:57:51;97433.16;;;12.13;92.58
50774;BME280;36745;48.544;8.918;2022-09-12T07:00:56;97432.16;;;12.07;93.15
50774;BME280;36745;48.544;8.918;2022-09-12T07:04:05;97438.66;;;12.13;93.42
50774;BME280;36745;48.544;8.918;2022-09-12T07:07:09;97445.47;;;12.22;92.87
50774;BME280;36745;48.544;8.918;2022-09-12T07:10:10;97433.78;;;12.17;92.58
50774;BME280;36745;48.544;8.918;2022-09-12T07:13:12;97428.66;;;12.29;92.94
50774;BME280;36745;48.544;8.918;2022-09-12T07:16:14;97423.13;;;12.29;93.19
50774;BME280;36745;48.544;8.918;2022-09-12T07:19:15;97426.88;;;12.35;93.73
50774;BME280;36745;48.544;8.918;2022-09-12T07:22:16;97422.34;;;12.50;93.34
50774;BME280;36745;48.544;8.918;2022-09-12T07:25:17;97421.19;;;12.60;93.31
50774;BME280;36745;48.544;8.918;2022-09-12T07:28:18;97420.03;;;12.70;93.81
50774;BME280;36745;48.544;8.918;2022-09-12T07:31:23;97425.03;;;12.84;93.79
50774;BME280;36745;48.544;8.918;2022-09-12T07:34:24;97416.91;;;13.12;94.39
50774;BME280;36745;48.544;8.918;2022-09-12T07:37:25;97425.63;;;13.41;94.43
50774;BME280;36745;48.544;8.918;2022-09-12T07:40:34;97419.50;;;13.55;93.33
50774;BME280;36745;48.544;8.918;2022-09-12T07:43:39;97413.69;;;13.71;93.25
50774;BME280;36745;48.544;8.918;2022-09-12T07:46:40;97415.28;;;13.91;93.43
50774;BME280;36745;48.544;8.918;2022-09-12T07:49:41;97401.13;;;14.07;92.60
50774;BME280;36745;48.544;8.918;2022-09-12T07:52:42;97409.91;;;14.14;92.77
50774;BME280;36745;48.544;8.918;2022-09-12T07:55:42;97409.31;;;14.19;92.07
50774;BME280;36745;48.544;8.918;2022-09-12T07:58:44;97401.59;;;14.33;92.24
50774;BME280;36745;48.544;8.918;2022-09-12T08:01:45;97406.34;;;14.59;92.50
50774;BME280;36745;48.544;8.918;2022-09-12T08:04:46;97404.16;;;14.82;92.77
50774;BME280;36745;48.544;8.918;2022-09-12T08:07:48;97405.50;;;14.95;91.80
50774;BME280;36745;48.544;8.918;2022-09-12T08:10:56;97409.63;;;15.09;91.76
50774;BME280;36745;48.544;8.918;2022-09-12T08:13:57;97411.72;;;15.23;91.63
50774;BME280;36745;48.544;8.918;2022-09-12T08:16:58;97408.88;;;15.41;91.28
50774;BME280;36745;48.544;8.918;2022-09-12T08:19:59;97400.59;;;15.32;90.07
50774;BME280;36745;48.544;8.918;2022-09-12T08:23:00;97402.47;;;15.26;89.89
50774;BME280;36745;48.544;8.918;2022-09-12T08:26:02;97418.75;;;15.42;90.42
50774;BME280;36745;48.544;8.918;2022-09-12T08:29:04;97415.97;;;15.51;90.02
50774;BME280;36745;48.544;8.918;2022-09-12T08:32:05;97408.78;;;15.69;90.12
50774;BME280;36745;48.544;8.918;2022-09-12T08:35:06;97403.44;;;15.80;89.98
50774;BME280;36745;48.544;8.918;2022-09-12T08:38:07;97400.94;;;15.82;89.71
50774;BME280;36745;48.544;8.918;2022-09-12T08:41:10;97409.16;;;15.76;88.78
50774;BME280;36745;48.544;8.918;2022-09-12T08:47:39;97399.34;;;16.14;89.84
50774;BME280;36745;48.544;8.918;2022-09-12T08:50:41;97399.59;;;16.40;89.93
50774;BME280;36745;48.544;8.918;2022-09-12T08:53:46;97393.41;;;16.59;89.49
50774;BME280;36745;48.544;8.918;2022-09-12T08:56:48;97384.66;;;16.52;88.16
50774;BME280;36745;48.544;8.918;2022-09-12T08:59:50;97395.94;;;16.72;88.32
50774;BME280;36745;48.544;8.918;2022-09-12T09:03:01;97396.41;;;16.70;87.95
50774;BME280;36745;48.544;8.918;2022-09-12T09:13:23;97384.03;;;17.36;87.70
50774;BME280;36745;48.544;8.918;2022-09-12T09:16:15;97386.25;;;17.81;87.18
50774;BME280;36745;48.544;8.918;2022-09-12T09:19:34;97390.13;;;18.10;86.31
50774;BME280;36745;48.544;8.918;2022-09-12T09:25:43;97376.84;;;18.45;85.00
50774;BME280;36745;48.544;8.918;2022-09-12T09:28:55;97381.94;;;18.67;84.69
50774;BME280;36745;48.544;8.918;2022-09-12T09:31:59;97378.38;;;18.98;80.98
50774;BME280;36745;48.544;8.918;2022-09-12T09:35:20;97378.19;;;19.07;78.62
50774;BME280;36745;48.544;8.918;2022-09-12T09:38:28;97368.28;;;19.37;78.58
50774;BME280;36745;48.544;8.918;2022-09-12T09:41:48;97372.69;;;19.92;78.54
50774;BME280;36745;48.544;8.918;2022-09-12T09:44:55;97363.22;;;20.43;78.09
50774;BME280;36745;48.544;8.918;2022-09-12T09:48:03;97373.53;;;20.20;76.75
50774;BME280;36745;48.544;8.918;2022-09-12T09:51:26;97369.41;;;19.99;76.19
50774;BME280;36745;48.544;8.918;2022-09-12T09:54:44;97374.84;;;20.25;75.80
50774;BME280;36745;48.544;8.918;2022-09-12T09:57:48;97371.72;;;20.93;73.81
50774;BME280;36745;48.544;8.918;2022-09-12T10:00:57;97367.63;;;20.94;73.36
50774;BME280;36745;48.544;8.918;2022-09-12T10:03:59;97363.03;;;21.02;72.21
50774;BME280;36745;48.544;8.918;2022-09-12T10:07:02;97366.59;;;21.03;71.23
50774;BME280;36745;48.544;8.918;2022-09-12T10:10:15;97363.81;;;20.91;70.73
50774;BME280;36745;48.544;8.918;2022-09-12T10:13:24;97365.06;;;21.07;70.85
50774;BME280;36745;48.544;8.918;2022-09-12T10:16:31;97358.06;;;21.92;68.06
50774;BME280;36745;48.544;8.918;2022-09-12T10:19:35;97346.56;;;22.06;68.46
50774;BME280;36745;48.544;8.918;2022-09-12T10:22:37;97346.34;;;21.99;66.36
50774;BME280;36745;48.544;8.918;2022-09-12T10:25:38;97338.78;;;22.35;66.23
50774;BME280;36745;48.544;8.918;2022-09-12T10:28:48;97336.28;;;22.67;65.53
50774;BME280;36745;48.544;8.918;2022-09-12T10:31:58;97345.34;;;22.43;65.16
50774;BME280;36745;48.544;8.918;2022-09-12T10:35:07;97339.84;;;22.21;64.73
50774;BME280;36745;48.544;8.918;2022-09-12T10:38:22;97346.00;;;22.13;64.75
50774;BME280;36745;48.544;8.918;2022-09-12T10:41:24;97338.97;;;22.42;62.05
50774;BME280;36745;48.544;8.918;2022-09-12T10:44:28;97343.22;;;22.60;62.58
50774;BME280;36745;48.544;8.918;2022-09-12T10:47:30;97337.72;;;22.38;63.01
50774;BME280;36745;48.544;8.918;2022-09-12T10:50:39;97333.47;;;22.67;62.15
50774;BME280;36745;48.544;8.918;2022-09-12T10:53:44;97323.66;;;23.14;62.27
50774;BME280;36745;48.544;8.918;2022-09-12T11:03:21;97317.66;;;23.77;60.02
50774;BME280;36745;48.544;8.918;2022-09-12T11:06:35;97314.38;;;23.73;58.86
50774;BME280;36745;48.544;8.918;2022-09-12T11:10:02;97310.88;;;23.37;57.18
50774;BME280;36745;48.544;8.918;2022-09-12T11:16:43;97300.38;;;22.84;56.41
50774;BME280;36745;48.544;8.918;2022-09-12T11:20:06;97292.50;;;22.82;57.67
50774;BME280;36745;48.544;8.918;2022-09-12T11:23:30;97296.66;;;23.30;58.82
50774;BME280;36745;48.544;8.918;2022-09-12T11:30:12;97291.97;;;24.05;58.22
50774;BME280;36745;48.544;8.918;2022-09-12T11:33:30;97284.94;;;23.74;57.10
50774;BME280;36745;48.544;8.918;2022-09-12T11:36:38;97282.22;;;23.88;56.07
50774;BME280;36745;48.544;8.918;2022-09-12T11:39:43;97279.84;;;23.92;54.60
50774;BME280;36745;48.544;8.918;2022-09-12T11:42:48;97285.25;;;24.08;55.51
50774;BME280;36745;48.544;8.918;2022-09-12T11:45:51;97278.25;;;24.15;56.04
50774;BME280;36745;48.544;8.918;2022-09-12T11:52:10;97279.19;;;24.60;54.22
50774;BME280;36745;48.544;8.918;2022-09-12T11:55:23;97265.75;;;24.66;53.75
50774;BME280;36745;48.544;8.918;2022-09-12T11:58:27;97257.31;;;24.80;53.43
50774;BME280;36745;48.544;8.918;2022-09-12T12:01:37;97259.09;;;24.83;51.74
50774;BME280;36745;48.544;8.918;2022-09-12T12:08:21;97250.00;;;24.90;51.82
50774;BME280;36745;48.544;8.918;2022-09-12T12:11:30;97260.47;;;25.08;52.81
50774;BME280;36745;48.544;8.918;2022-09-12T12:17:40;97249.28;;;24.71;49.60
50774;BME280;36745;48.544;8.918;2022-09-12T12:20:41;97250.34;;;24.67;49.77
50774;BME280;36745;48.544;8.918;2022-09-12T12:27:24;97237.84;;;24.31;47.35
50774;BME280;36745;48.544;8.918;2022-09-12T12:36:34;97232.50;;;24.09;47.23
50774;BME280;36745;48.544;8.918;2022-09-12T12:52:16;97218.44;;;24.09;46.23
50774;BME280;36745;48.544;8.918;2022-09-12T12:58:42;97210.59;;;24.39;45.12
50774;BME280;36745;48.544;8.918;2022-09-12T13:01:54;97215.66;;;24.41;45.65
50774;BME280;36745;48.544;8.918;2022-09-12T13:04:59;97212.25;;;24.48;45.76
50774;BME280;36745;48.544;8.918;2022-09-12T13:08:08;97205.56;;;24.64;45.74
50774;BME280;36745;48.544;8.918;2022-09-12T13:11:27;97210.97;;;24.62;45.39
50774;BME280;36745;48.544;8.918;2022-09-12T13:14:35;97199.34;;;24.52;44.05
50774;BME280;36745;48.544;8.918;2022-09-12T13:17:40;97197.63;;;24.62;45.12
50774;BME280;36745;48.544;8.918;2022-09-12T13:21:09;97195.72;;;24.71;44.98
50774;BME280;36745;48.544;8.918;2022-09-12T13:24:13;97194.22;;;24.38;42.94
50774;BME280;36745;48.544;8.918;2022-09-12T13:27:19;97195.84;;;24.46;44.81
50774;BME280;36745;48.544;8.918;2022-09-12T13:30:21;97190.69;;;24.50;43.83
50774;BME280;36745;48.544;8.918;2022-09-12T13:42:47;97179.13;;;24.35;43.18
50774;BME280;36745;48.544;8.918;2022-09-12T13:45:51;97177.97;;;24.44;44.15
50774;BME280;36745;48.544;8.918;2022-09-12T13:48:52;97177.97;;;24.44;43.39
50774;BME280;36745;48.544;8.918;2022-09-12T13:52:05;97172.88;;;24.42;43.34
50774;BME280;36745;48.544;8.918;2022-09-12T13:55:22;97164.66;;;24.44;43.04
50774;BME280;36745;48.544;8.918;2022-09-12T13:58:29;97162.81;;;24.47;43.73
50774;BME280;36745;48.544;8.918;2022-09-12T14:01:39;97151.66;;;24.54;44.08
50774;BME280;36745;48.544;8.918;2022-09-12T14:04:48;97151.00;;;24.48;42.85
50774;BME280;36745;48.544;8.918;2022-09-12T14:08:11;97150.34;;;24.42;43.21
50774;BME280;36745;48.544;8.918;2022-09-12T14:11:24;97141.88;;;24.29;42.46
50774;BME280;36745;48.544;8.918;2022-09-12T14:14:32;97138.66;;;24.19;43.05
50774;BME280;36745;48.544;8.918;2022-09-12T14:17:36;97142.91;;;24.26;43.34
50774;BME280;36745;48.544;8.918;2022-09-12T14:20:42;97143.34;;;24.30;43.27
50774;BME280;36745;48.544;8.918;2022-09-12T14:23:44;97137.28;;;24.26;43.44
50774;BME280;36745;48.544;8.918;2022-09-12T14:26:52;97133.50;;;24.23;43.16
50774;BME280;36745;48.544;8.918;2022-09-12T14:30:04;97136.63;;;24.20;43.35
50774;BME280;36745;48.544;8.918;2022-09-12T14:36:21;97132.41;;;24.08;41.95
50774;BME280;36745;48.544;8.918;2022-09-12T14:39:41;97126.84;;;23.89;42.51
50774;BME280;36745;48.544;8.918;2022-09-12T14:42:45;97117.69;;;24.02;43.20
50774;BME280;36745;48.544;8.918;2022-09-12T14:45:58;97125.50;;;24.09;43.15
50774;BME280;36745;48.544;8.918;2022-09-12T14:49:32;97119.66;;;24.07;43.22
50774;BME280;36745;48.544;8.918;2022-09-12T14:52:41;97112.25;;;24.04;42.80
50774;BME280;36745;48.544;8.918;2022-09-12T14:56:02;97106.88;;;24.06;43.27
50774;BME280;36745;48.544;8.918;2022-09-12T15:02:31;97096.97;;;23.99;43.33
50774;BME280;36745;48.544;8.918;2022-09-12T15:05:32;97099.88;;;23.94;43.49
50774;BME280;36745;48.544;8.918;2022-09-12T15:08:40;97102.78;;;23.88;43.22
50774;BME280;36745;48.544;8.918;2022-09-12T15:11:44;97110.88;;;23.78;43.24
50774;BME280;36745;48.544;8.918;2022-09-12T15:14:48;97105.00;;;23.76;43.71
50774;BME280;36745;48.544;8.918;2022-09-12T15:17:51;97100.75;;;23.70;43.33
50774;BME280;36745;48.544;8.918;2022-09-12T15:20:55;97101.31;;;23.68;43.71
50774;BME280;36745;48.544;8.918;2022-09-12T15:23:57;97100.09;;;23.64;43.48
50774;BME280;36745;48.544;8.918;2022-09-12T15:27:00;97111.19;;;23.56;43.62
50774;BME280;36745;48.544;8.918;2022-09-12T15:30:05;97109.66;;;23.55;43.91
50774;BME280;36745;48.544;8.918;2022-09-12T15:33:10;97101.97;;;23.56;43.90
50774;BME280;36745;48.544;8.918;2022-09-12T15:36:19;97095.84;;;23.57;44.28
50774;BME280;36745;48.544;8.918;2022-09-12T15:39:23;97101.22;;;23.55;44.50
50774;BME280;36745;48.544;8.918;2022-09-12T15:42:27;97090.81;;;23.50;44.56
50774;BME280;36745;48.544;8.918;2022-09-12T15:45:33;97091.63;;;23.45;44.66
50774;BME280;36745;48.544;8.918;2022-09-12T15:48:37;97094.28;;;23.37;44.59
50774;BME280;36745;48.544;8.918;2022-09-12T15:51:40;97087.81;;;23.24;44.64
50774;BME280;36745;48.544;8.918;2022-09-12T15:54:41;97088.19;;;23.15;44.73
50774;BME280;36745;48.544;8.918;2022-09-12T15:58:02;97080.13;;;23.06;44.91
50774;BME280;36745;48.544;8.918;2022-09-12T16:01:23;97076.78;;;22.88;44.92
50774;BME280;36745;48.544;8.918;2022-09-12T16:04:44;97067.28;;;22.67;44.79
50774;BME280;36745;48.544;8.918;2022-09-12T16:08:08;97059.19;;;22.58;45.00
50774;BME280;36745;48.544;8.918;2022-09-12T16:11:29;97068.44;;;22.53;45.19
50774;BME280;36745;48.544;8.918;2022-09-12T16:14:50;97061.13;;;22.44;45.77
50774;BME280;36745;48.544;8.918;2022-09-12T16:18:11;97065.03;;;22.36;45.89
50774;BME280;36745;48.544;8.918;2022-09-12T16:21:34;97055.44;;;22.26;46.87
50774;BME280;36745;48.544;8.918;2022-09-12T16:24:55;97060.88;;;22.18;46.53
50774;BME280;36745;48.544;8.918;2022-09-12T16:28:16;97060.69;;;22.10;46.44
50774;BME280;36745;48.544;8.918;2022-09-12T16:31:38;97053.06;;;22.05;46.45
50774;BME280;36745;48.544;8.918;2022-09-12T16:35:00;97055.69;;;21.98;46.81
50774;BME280;36745;48.544;8.918;2022-09-12T16:38:22;97046.28;;;21.90;47.01
50774;BME280;36745;48.544;8.918;2022-09-12T16:41:43;97043.34;;;21.76;47.20
50774;BME280;36745;48.544;8.918;2022-09-12T16:45:05;97048.75;;;21.69;47.15
50774;BME280;36745;48.544;8.918;2022-09-12T16:48:26;97039.16;;;21.59;47.60
50774;BME280;36745;48.544;8.918;2022-09-12T16:51:47;97039.69;;;21.52;47.90
50774;BME280;36745;48.544;8.918;2022-09-12T16:55:09;97041.78;;;21.46;48.02
50774;BME280;36745;48.544;8.918;2022-09-12T16:58:31;97041.84;;;21.34;48.74
50774;BME280;36745;48.544;8.918;2022-09-12T17:01:53;97037.84;;;21.24;49.08
50774;BME280;36745;48.544;8.918;2022-09-12T17:05:15;97040.19;;;21.15;49.81
50774;BME280;36745;48.544;8.918;2022-09-12T17:08:41;97035.09;;;21.08;49.83
50774;BME280;36745;48.544;8.918;2022-09-12T17:12:06;97037.94;;;21.02;49.80
50774;BME280;36745;48.544;8.918;2022-09-12T17:15:28;97036.97;;;20.94;50.49
50774;BME280;36745;48.544;8.918;2022-09-12T17:18:50;97034.69;;;20.87;50.72
50774;BME280;36745;48.544;8.918;2022-09-12T17:22:12;97046.69;;;20.82;51.05
50774;BME280;36745;48.544;8.918;2022-09-12T17:25:33;97057.44;;;20.72;51.23
50774;BME280;36745;48.544;8.918;2022-09-12T17:28:54;97055.66;;;20.64;51.87
50774;BME280;36745;48.544;8.918;2022-09-12T17:32:15;97055.94;;;20.55;52.45
50774;BME280;36745;48.544;8.918;2022-09-12T17:35:37;97061.09;;;20.39;52.80
50774;BME280;36745;48.544;8.918;2022-09-12T17:39:01;97065.66;;;20.26;53.20
50774;BME280;36745;48.544;8.918;2022-09-12T17:42:22;97067.19;;;20.16;54.14
50774;BME280;36745;48.544;8.918;2022-09-12T17:45:44;97057.53;;;20.05;54.31
50774;BME280;36745;48.544;8.918;2022-09-12T17:49:10;97055.50;;;19.95;54.75
50774;BME280;36745;48.544;8.918;2022-09-12T17:52:35;97064.16;;;19.86;54.99
50774;BME280;36745;48.544;8.918;2022-09-12T17:56:00;97060.34;;;19.72;56.07
50774;BME280;36745;48.544;8.918;2022-09-12T17:59:21;97058.28;;;19.61;56.16
50774;BME280;36745;48.544;8.918;2022-09-12T18:02:44;97057.03;;;19.51;56.44
50774;BME280;36745;48.544;8.918;2022-09-12T18:06:07;97063.59;;;19.37;57.30
50774;BME280;36745;48.544;8.918;2022-09-12T18:09:29;97064.34;;;19.32;57.42
50774;BME280;36745;48.544;8.918;2022-09-12T18:12:50;97078.53;;;19.28;57.63
50774;BME280;36745;48.544;8.918;2022-09-12T18:16:12;97068.88;;;19.18;58.82
50774;BME280;36745;48.544;8.918;2022-09-12T18:19:34;97067.56;;;19.08;58.62
50774;BME280;36745;48.544;8.918;2022-09-12T18:22:55;97066.28;;;18.98;59.45
50774;BME280;36745;48.544;8.918;2022-09-12T18:26:17;97066.75;;;18.91;59.36
50774;BME280;36745;48.544;8.918;2022-09-12T18:29:38;97065.13;;;18.73;60.15
50774;BME280;36745;48.544;8.918;2022-09-12T18:33:00;97066.66;;;18.69;59.97